TimeEDT,TemperatureF,Dew PointF,Humidity,Sea Level PressureIn,VisibilityMPH,Wind Direction,Wind SpeedMPH,Gust SpeedMPH,PrecipitationIn,Events,Conditions,WindDirDegrees,DateUTC
12:53 AM,69.1,64.9,87,29.84,10.0,SSE,5.8,-,N/A,,Partly Cloudy,160,2013-06-01 04:53:00
1:53 AM,70.0,66.0,87,29.80,10.0,SSE,4.6,-,N/A,,Clear,160,2013-06-01 05:53:00
2:53 AM,71.1,64.9,81,29.79,10.0,SSW,6.9,-,N/A,,Clear,210,2013-06-01 06:53:00
3:53 AM,70.0,64.0,81,29.78,10.0,SSW,4.6,-,N/A,,Partly Cloudy,200,2013-06-01 07:53:00
4:53 AM,70.0,61.0,73,29.80,10.0,SSW,10.4,18.4,0.00,Rain,Light Rain,210,2013-06-01 08:53:00
5:53 AM,66.9,63.0,87,29.80,10.0,SSW,10.4,18.4,0.11,Rain,Light Rain,210,2013-06-01 09:53:00
6:53 AM,66.0,63.0,90,29.76,10.0,SSW,8.1,-,0.01,,Partly Cloudy,200,2013-06-01 10:53:00
7:29 AM,66.2,62.6,88,29.79,10.0,SSW,13.8,19.6,N/A,,Scattered Clouds,200,2013-06-01 11:29:00
7:53 AM,68.0,63.0,84,29.77,10.0,South,12.7,20.7,N/A,,Partly Cloudy,190,2013-06-01 11:53:00
8:53 AM,69.1,62.1,78,29.74,10.0,South,8.1,-,N/A,,Overcast,190,2013-06-01 12:53:00
9:53 AM,71.1,63.0,75,29.76,10.0,WSW,12.7,20.7,N/A,,Partly Cloudy,250,2013-06-01 13:53:00
10:20 AM,69.8,62.6,78,29.78,10.0,SW,9.2,17.3,N/A,,Overcast,230,2013-06-01 14:20:00
10:53 AM,71.1,64.0,78,29.78,10.0,SW,8.1,-,N/A,,Overcast,220,2013-06-01 14:53:00
11:07 AM,71.6,62.6,73,29.79,10.0,SW,9.2,-,N/A,,Overcast,230,2013-06-01 15:07:00
11:32 AM,73.4,64.4,73,29.79,10.0,West,8.1,18.4,N/A,,Overcast,270,2013-06-01 15:32:00
11:53 AM,75.0,64.0,69,29.78,10.0,SW,10.4,-,N/A,,Mostly Cloudy,230,2013-06-01 15:53:00
12:53 PM,77.0,64.0,64,29.78,10.0,WSW,15.0,19.6,N/A,,Scattered Clouds,250,2013-06-01 16:53:00
1:53 PM,80.1,64.0,58,29.76,10.0,SW,13.8,20.7,N/A,,Mostly Cloudy,220,2013-06-01 17:53:00
2:53 PM,81.0,62.1,52,29.76,10.0,SW,15.0,24.2,N/A,,Scattered Clouds,230,2013-06-01 18:53:00
3:53 PM,78.1,62.1,58,29.75,10.0,SW,8.1,-,N/A,,Mostly Cloudy,230,2013-06-01 19:53:00
4:53 PM,78.1,62.1,58,29.76,10.0,SW,9.2,-,N/A,,Mostly Cloudy,230,2013-06-01 20:53:00
5:53 PM,77.0,63.0,62,29.75,10.0,SSW,13.8,19.6,N/A,,Mostly Cloudy,210,2013-06-01 21:53:00
6:53 PM,75.0,61.0,62,29.74,10.0,SSW,9.2,19.6,N/A,,Overcast,210,2013-06-01 22:53:00
7:53 PM,73.0,61.0,66,29.75,10.0,SW,8.1,-,N/A,,Overcast,220,2013-06-01 23:53:00
8:53 PM,72.0,61.0,68,29.73,10.0,SSW,5.8,-,N/A,,Overcast,200,2013-06-02 00:53:00
9:53 PM,71.1,61.0,70,29.72,10.0,South,4.6,-,N/A,,Overcast,190,2013-06-02 01:53:00
10:53 PM,70.0,61.0,73,29.70,10.0,South,4.6,-,N/A,,Overcast,180,2013-06-02 02:53:00
11:53 PM,68.0,61.0,78,29.68,10.0,SSW,4.6,-,N/A,,Clear,200,2013-06-02 03:53:00